Time;durP1;ratioP1;P1;durP2;ratioP2;P2;SDS_P1;SDS_P2;PMS_P1;PMS_P2;Temp;Humidity;BMP_temperature;BMP_pressure;BME280_temperature;BME280_humidity;BME280_pressure;Samples;Min_cycle;Max_cycle;Signal;HPM_P1;HPM_P2
2023/01/18 00:01:07;;;;;;;26.77;19.43;;;1.90;67.80;;;;;;4964926;28;20176;-89
2023/01/18 00:03:36;;;;;;;28.70;19.70;;;2.00;66.50;;;;;;4963732;28;20637;-88
2023/01/18 00:06:05;;;;;;;27.67;20.47;;;2.10;65.60;;;;;;4964490;28;20206;-88
2023/01/18 00:08:33;;;;;;;28.53;20.27;;;2.10;65.20;;;;;;4982991;28;20175;-87
2023/01/18 00:11:11;;;;;;;30.90;20.63;;;2.10;64.00;;;;;;4966701;28;20239;-88
2023/01/18 00:13:38;;;;;;;30.87;20.40;;;2.00;62.90;;;;;;4971339;28;20183;-88
2023/01/18 00:16:10;;;;;;;28.97;19.30;;;1.90;64.30;;;;;;4970255;28;20164;-86
2023/01/18 00:18:36;;;;;;;27.80;19.87;;;2.00;65.20;;;;;;4966455;28;20191;-88
2023/01/18 00:21:05;;;;;;;29.37;19.77;;;2.40;64.40;;;;;;4973244;28;20205;-91
2023/01/18 00:23:31;;;;;;;31.93;19.60;;;2.30;59.30;;;;;;4954965;28;20174;-87
2023/01/18 00:26:03;;;;;;;25.03;18.23;;;2.10;56.10;;;;;;4982984;28;20191;-87
2023/01/18 00:28:29;;;;;;;26.73;18.87;;;2.10;56.10;;;;;;4967653;28;20207;-88
2023/01/18 00:30:55;;;;;;;24.10;17.03;;;2.00;56.30;;;;;;4975374;28;20186;-87
2023/01/18 00:33:24;;;;;;;25.53;18.47;;;1.90;57.40;;;;;;4975992;28;20180;-86
2023/01/18 00:36:03;;;;;;;26.33;18.90;;;1.90;59.00;;;;;;4983034;28;20167;-87
2023/01/18 00:39:04;;;;;;;27.30;17.23;;;1.80;61.40;;;;;;4982907;28;20188;-87
2023/01/18 00:41:30;;;;;;;24.17;18.37;;;1.80;64.10;;;;;;4983896;28;20162;-88
2023/01/18 00:43:59;;;;;;;26.33;18.87;;;1.80;64.80;;;;;;4982795;28;20219;-87
2023/01/18 00:46:33;;;;;;;25.73;18.47;;;2.10;65.40;;;;;;4978048;28;20164;-88
2023/01/18 00:49:03;;;;;;;24.37;18.43;;;2.00;62.30;;;;;;4966530;28;20239;-86
2023/01/18 00:51:28;;;;;;;25.73;18.07;;;1.90;61.60;;;;;;4965956;28;20257;-88
2023/01/18 00:53:55;;;;;;;23.67;18.10;;;1.90;64.00;;;;;;4964040;28;20183;-88
2023/01/18 00:56:22;;;;;;;27.03;17.83;;;1.90;65.90;;;;;;4963463;28;20196;-88
2023/01/18 00:58:48;;;;;;;23.70;17.70;;;2.00;66.40;;;;;;4947103;28;20194;-88
2023/01/18 01:01:14;;;;;;;23.53;17.67;;;2.00;65.30;;;;;;4983023;28;20607;-89
2023/01/18 01:06:43;;;;;;;28.37;17.47;;;2.30;64.50;;;;;;4980377;28;20175;-87
2023/01/18 01:09:10;;;;;;;25.23;16.83;;;2.10;61.80;;;;;;4961880;28;20662;-88
2023/01/18 01:11:36;;;;;;;24.30;17.53;;;1.90;61.50;;;;;;4960366;28;20179;-87
2023/01/18 01:27:45;;;;;;;23.20;16.17;;;1.80;54.80;;;;;;4980070;28;20167;-86
2023/01/18 01:30:11;;;;;;;21.93;15.87;;;1.70;58.30;;;;;;4962449;28;20176;-88
2023/01/18 01:32:37;;;;;;;24.33;15.33;;;1.50;61.60;;;;;;4976310;28;20273;-87
2023/01/18 01:35:03;;;;;;;21.30;15.03;;;1.60;64.00;;;;;;4985325;28;20207;-88
2023/01/18 01:37:29;;;;;;;21.10;15.40;;;1.60;65.70;;;;;;4980330;28;20333;-87
2023/01/18 01:39:54;;;;;;;23.27;15.67;;;1.60;65.60;;;;;;4980875;28;20241;-87
2023/01/18 01:42:20;;;;;;;22.23;15.17;;;1.60;66.60;;;;;;4980346;28;20655;-88
2023/01/18 01:44:49;;;;;;;23.53;15.63;;;1.80;63.30;;;;;;4979815;28;20210;-87
2023/01/18 01:47:43;;;;;;;24.23;16.17;;;1.80;58.70;;;;;;4979700;28;20726;-87
2023/01/18 01:50:15;;;;;;;23.90;14.73;;;1.60;59.20;;;;;;4977679;28;20187;-88
2023/01/18 01:52:43;;;;;;;22.33;15.23;;;1.50;60.90;;;;;;4979134;28;20179;-87
2023/01/18 01:55:24;;;;;;;21.80;15.30;;;1.50;62.90;;;;;;4981616;28;20591;-88
2023/01/18 01:57:58;;;;;;;22.57;14.17;;;1.50;63.90;;;;;;4983205;28;20174;-88
2023/01/18 02:00:25;;;;;;;19.27;14.23;;;1.40;64.30;;;;;;4982635;28;20174;-88
2023/01/18 02:02:58;;;;;;;22.47;14.53;;;1.50;66.00;;;;;;4970418;28;20214;-87
2023/01/18 02:05:25;;;;;;;22.80;15.00;;;1.50;66.50;;;;;;4963427;28;20219;-87
2023/01/18 02:07:52;;;;;;;23.13;13.37;;;1.40;65.50;;;;;;4964541;28;20176;-87
2023/01/18 02:10:18;;;;;;;21.57;15.03;;;1.40;66.20;;;;;;4963733;28;20186;-89
2023/01/18 02:12:47;;;;;;;39.93;35.83;;;1.60;66.80;;;;;;4965288;28;20167;-88
2023/01/18 02:15:13;;;;;;;48.13;43.20;;;1.80;62.70;;;;;;4967398;28;20176;-87
2023/01/18 02:18:07;;;;;;;43.67;39.10;;;2.00;54.70;;;;;;4965634;28;20180;-88
2023/01/18 02:21:09;;;;;;;46.10;38.93;;;1.80;50.00;;;;;;4959906;28;20211;-88
2023/01/18 02:23:54;;;;;;;26.73;22.40;;;1.60;49.80;;;;;;4958627;28;20187;-88
2023/01/18 02:26:44;;;;;;;25.67;16.90;;;1.60;46.40;;;;;;4960813;28;20193;-87
2023/01/18 02:29:16;;;;;;;21.60;15.07;;;1.50;50.40;;;;;;4959319;28;20180;-88
2023/01/18 02:32:05;;;;;;;21.67;13.83;;;1.30;53.40;;;;;;4962330;28;20178;-88
2023/01/18 02:34:46;;;;;;;22.17;13.80;;;1.10;57.00;;;;;;4960272;28;20632;-87
2023/01/18 02:37:19;;;;;;;18.53;13.17;;;1.10;60.50;;;;;;4960676;28;20182;-87
2023/01/18 02:40:14;;;;;;;18.67;12.83;;;1.30;61.30;;;;;;4958515;28;20274;-88
2023/01/18 02:48:22;;;;;;;18.30;11.20;;;1.00;61.70;;;;;;5001920;28;20206;-87
2023/01/18 02:50:48;;;;;;;17.87;12.37;;;1.00;63.50;;;;;;4982447;28;20186;-86
2023/01/18 02:53:15;;;;;;;15.23;10.90;;;1.20;64.80;;;;;;4983493;28;20251;-88
2023/01/18 02:55:44;;;;;;;21.60;12.53;;;1.30;63.30;;;;;;4965429;28;20210;-87
2023/01/18 02:58:27;;;;;;;16.07;10.13;;;1.10;62.80;;;;;;4969872;28;20175;-85
2023/01/18 03:01:28;;;;;;;14.43;10.30;;;1.10;62.50;;;;;;4971013;28;20198;-87
2023/01/18 03:04:02;;;;;;;17.50;9.93;;;1.10;61.40;;;;;;4939048;28;20266;-86
2023/01/18 03:06:29;;;;;;;23.60;10.90;;;0.90;62.20;;;;;;4983899;28;20164;-85
2023/01/18 03:08:58;;;;;;;17.37;11.73;;;0.80;63.90;;;;;;4984931;28;20171;-88
2023/01/18 03:11:44;;;;;;;17.73;11.43;;;0.80;67.10;;;;;;4985232;28;20156;-84
2023/01/18 03:14:36;;;;;;;15.97;11.00;;;0.90;67.10;;;;;;4984719;28;20264;-87
2023/01/18 03:17:32;;;;;;;15.70;10.73;;;0.80;67.70;;;;;;5002079;28;20178;-87
2023/01/18 03:20:11;;;;;;;22.40;12.03;;;0.80;69.50;;;;;;4974962;28;20190;-88
2023/01/18 03:26:16;;;;;;;17.37;10.90;;;0.70;71.40;;;;;;4981009;28;20183;-88
2023/01/18 03:35:06;;;;;;;17.17;11.70;;;0.70;76.40;;;;;;5001889;28;20198;-88
2023/01/18 03:37:39;;;;;;;17.70;11.90;;;0.80;76.70;;;;;;5001861;28;20217;-87
2023/01/18 03:40:08;;;;;;;17.17;11.73;;;0.80;76.00;;;;;;5002668;28;20179;-88
2023/01/18 03:43:15;;;;;;;18.47;12.83;;;0.70;74.70;;;;;;4995663;28;20198;-86
2023/01/18 03:45:47;;;;;;;18.00;11.60;;;0.70;75.40;;;;;;4931211;29;20283;-87
2023/01/18 03:48:19;;;;;;;18.80;12.07;;;0.60;75.80;;;;;;4908411;29;20187;-88
2023/01/18 03:51:19;;;;;;;18.20;11.77;;;0.60;77.10;;;;;;4955975;28;20540;-88
2023/01/18 03:54:14;;;;;;;18.93;11.73;;;0.60;79.20;;;;;;4995831;28;20187;-87
2023/01/18 03:56:53;;;;;;;16.60;11.97;;;0.50;80.20;;;;;;4980214;28;20269;-88
2023/01/18 03:59:20;;;;;;;16.47;11.63;;;0.60;81.80;;;;;;4998180;28;20163;-87
2023/01/18 04:01:47;;;;;;;23.20;12.43;;;0.60;79.60;;;;;;4979928;28;20174;-88
2023/01/18 04:04:13;;;;;;;19.20;13.33;;;0.70;78.80;;;;;;4979985;28;20406;-88
2023/01/18 04:06:39;;;;;;;18.77;12.80;;;0.60;77.90;;;;;;4979912;28;20182;-89
2023/01/18 04:09:05;;;;;;;15.80;12.10;;;0.60;79.50;;;;;;4979628;28;20183;-86
2023/01/18 04:11:31;;;;;;;21.33;12.53;;;0.50;80.20;;;;;;4997762;28;20241;-87
2023/01/18 04:13:56;;;;;;;19.97;13.53;;;0.50;81.30;;;;;;4980185;28;20179;-88
2023/01/18 04:16:22;;;;;;;17.13;12.97;;;0.50;82.60;;;;;;4980002;28;20210;-89
2023/01/18 04:18:48;;;;;;;20.87;12.20;;;0.50;83.60;;;;;;5007036;28;20179;-86
2023/01/18 04:21:13;;;;;;;17.20;12.67;;;0.60;84.40;;;;;;4983198;28;20179;-88
2023/01/18 04:23:39;;;;;;;17.43;12.67;;;0.50;85.10;;;;;;4997827;28;20171;-88
2023/01/18 04:26:05;;;;;;;17.77;12.43;;;0.50;86.00;;;;;;4980233;28;20181;-87
2023/01/18 04:28:33;;;;;;;18.33;13.10;;;0.50;86.40;;;;;;4997408;28;20498;-87
2023/01/18 04:30:59;;;;;;;19.43;13.40;;;0.40;87.80;;;;;;4980186;28;20662;-87
2023/01/18 04:33:25;;;;;;;16.70;12.60;;;0.50;88.40;;;;;;4997366;28;20188;-88
2023/01/18 04:35:53;;;;;;;19.10;14.70;;;0.40;87.60;;;;;;4980923;28;20198;-87
2023/01/18 04:38:20;;;;;;;20.17;13.97;;;0.40;87.90;;;;;;4960125;28;20203;-86
2023/01/18 04:40:45;;;;;;;25.87;15.00;;;0.50;87.60;;;;;;4966686;28;20258;-87
2023/01/18 04:43:17;;;;;;;24.70;13.73;;;0.50;88.20;;;;;;4964322;28;20254;-87
2023/01/18 04:45:51;;;;;;;20.17;13.43;;;0.50;86.00;;;;;;4960461;28;20215;-88
2023/01/18 04:48:17;;;;;;;18.00;13.40;;;0.60;86.10;;;;;;4980818;28;20172;-87
2023/01/18 04:50:45;;;;;;;19.00;14.37;;;0.50;83.80;;;;;;4965130;28;20181;-88
2023/01/18 04:53:12;;;;;;;20.03;14.03;;;0.50;83.40;;;;;;4965573;28;20168;-87
2023/01/18 04:55:44;;;;;;;21.90;13.63;;;0.50;83.60;;;;;;4974320;28;20787;-87
2023/01/18 04:58:10;;;;;;;18.73;13.70;;;0.50;82.10;;;;;;4973412;28;20174;-86
2023/01/18 05:00:41;;;;;;;20.77;14.30;;;0.40;82.30;;;;;;4982810;28;20172;-86
2023/01/18 05:03:11;;;;;;;17.73;13.87;;;0.40;84.00;;;;;;4985310;28;20187;-87
2023/01/18 05:05:56;;;;;;;25.43;13.97;;;0.40;85.00;;;;;;4966760;28;20239;-85
2023/01/18 05:08:22;;;;;;;19.80;14.27;;;0.40;85.60;;;;;;4961483;28;20715;-90
2023/01/18 05:10:47;;;;;;;20.90;14.83;;;0.50;85.90;;;;;;4960009;28;20190;-88
2023/01/18 05:13:13;;;;;;;17.17;13.23;;;0.60;84.40;;;;;;4993903;28;20222;-87
2023/01/18 05:15:38;;;;;;;19.00;14.10;;;0.60;83.20;;;;;;4977528;28;20172;-88
2023/01/18 05:18:10;;;;;;;18.53;13.47;;;0.50;82.30;;;;;;4967356;28;20519;-87
2023/01/18 05:20:39;;;;;;;20.90;15.07;;;0.50;83.10;;;;;;4979511;28;20172;-86
2023/01/18 05:23:09;;;;;;;20.27;13.43;;;0.50;84.00;;;;;;4965265;28;20628;-87
2023/01/18 05:25:35;;;;;;;20.57;15.00;;;0.50;84.40;;;;;;4966188;28;20211;-88
2023/01/18 05:28:01;;;;;;;20.90;14.63;;;0.50;85.40;;;;;;4987195;28;20163;-88
2023/01/18 05:30:27;;;;;;;18.30;13.00;;;0.50;86.70;;;;;;4981897;28;20182;-88
2023/01/18 05:32:52;;;;;;;20.23;13.97;;;0.50;87.20;;;;;;4993269;28;20172;-88
2023/01/18 05:35:19;;;;;;;17.93;13.90;;;0.60;87.10;;;;;;4996554;28;20194;-87
2023/01/18 05:37:44;;;;;;;18.53;13.30;;;0.60;87.30;;;;;;4979304;28;20179;-88
2023/01/18 05:40:11;;;;;;;17.63;13.50;;;0.50;87.10;;;;;;4972472;28;20195;-87
2023/01/18 05:42:37;;;;;;;18.47;13.77;;;0.50;87.00;;;;;;4964784;28;20251;-86
2023/01/18 05:45:06;;;;;;;20.50;13.37;;;0.50;86.60;;;;;;4963176;28;20234;-90
2023/01/18 05:47:33;;;;;;;25.07;13.63;;;0.40;86.80;;;;;;4962208;28;20262;-87
2023/01/18 05:49:59;;;;;;;20.20;13.87;;;0.30;87.20;;;;;;4964603;28;20616;-86
2023/01/18 05:52:25;;;;;;;19.00;12.63;;;0.30;88.50;;;;;;4964606;28;20183;-88
2023/01/18 05:54:50;;;;;;;23.27;14.67;;;0.40;89.60;;;;;;4962929;28;20195;-90
2023/01/18 05:57:18;;;;;;;19.83;13.03;;;0.30;90.00;;;;;;4962083;28;20175;-89
2023/01/18 05:59:44;;;;;;;19.33;12.77;;;0.30;90.30;;;;;;4963109;28;20233;-87
2023/01/18 06:02:10;;;;;;;22.00;13.03;;;0.40;90.80;;;;;;4961279;28;20195;-88
2023/01/18 06:04:36;;;;;;;22.93;14.93;;;0.30;91.30;;;;;;4973610;28;20290;-86
2023/01/18 06:07:02;;;;;;;25.30;13.97;;;0.30;91.30;;;;;;4988949;28;20171;-88
2023/01/18 06:09:28;;;;;;;20.53;13.67;;;0.40;91.60;;;;;;4995312;28;20195;-89
2023/01/18 06:11:56;;;;;;;22.07;13.23;;;0.40;90.80;;;;;;4982265;28;20171;-87
2023/01/18 06:14:21;;;;;;;19.13;12.97;;;0.50;90.50;;;;;;4981608;28;20178;-88
2023/01/18 06:16:47;;;;;;;19.60;14.33;;;0.50;89.60;;;;;;4985509;28;20179;-87
2023/01/18 06:19:13;;;;;;;22.17;14.57;;;0.40;90.00;;;;;;4990950;28;20175;-86
2023/01/18 06:21:38;;;;;;;20.10;14.90;;;0.40;90.20;;;;;;4989478;28;20190;-87
2023/01/18 06:24:04;;;;;;;18.00;14.60;;;0.40;89.00;;;;;;4985718;28;20735;-87
2023/01/18 06:26:30;;;;;;;19.53;13.33;;;0.30;90.00;;;;;;4985968;28;20210;-87
2023/01/18 06:28:56;;;;;;;18.50;12.93;;;0.20;90.90;;;;;;4984426;28;20181;-87
2023/01/18 06:31:23;;;;;;;16.60;12.53;;;0.30;91.70;;;;;;4987429;28;20238;-89
2023/01/18 06:33:50;;;;;;;23.67;13.33;;;0.20;92.50;;;;;;4981084;28;20206;-89
2023/01/18 06:36:19;;;;;;;21.63;14.00;;;0.20;93.10;;;;;;4966365;28;20175;-91
2023/01/18 06:38:45;;;;;;;16.80;13.00;;;0.20;93.50;;;;;;4985794;28;20239;-89
2023/01/18 06:41:11;;;;;;;21.10;13.53;;;0.30;93.20;;;;;;4965994;28;20644;-88
2023/01/18 06:43:37;;;;;;;19.93;13.53;;;0.40;93.20;;;;;;4966018;28;20202;-89
2023/01/18 06:46:06;;;;;;;16.03;12.60;;;0.30;92.40;;;;;;4966628;28;20202;-88
2023/01/18 06:48:35;;;;;;;19.57;13.83;;;0.30;92.30;;;;;;4966959;28;20238;-89
2023/01/18 06:51:04;;;;;;;17.37;13.63;;;0.30;92.80;;;;;;4968090;28;20187;-87
2023/01/18 06:53:29;;;;;;;21.53;14.07;;;0.40;92.60;;;;;;4965769;28;20640;-88
2023/01/18 06:55:58;;;;;;;20.87;14.43;;;0.30;92.40;;;;;;4963311;28;20203;-90
2023/01/18 06:58:25;;;;;;;22.87;13.83;;;0.30;92.60;;;;;;4972330;28;20168;-86
2023/01/18 07:00:58;;;;;;;19.17;13.23;;;0.30;92.60;;;;;;4972222;28;20267;-86
2023/01/18 07:03:26;;;;;;;22.37;13.10;;;0.40;93.30;;;;;;4963948;28;20279;-88
2023/01/18 07:05:53;;;;;;;18.50;13.50;;;0.40;92.80;;;;;;4973331;28;20207;-86
2023/01/18 07:08:19;;;;;;;20.20;14.13;;;0.30;92.90;;;;;;4983545;28;20243;-87
2023/01/18 07:10:49;;;;;;;24.03;13.93;;;0.30;93.10;;;;;;4984850;28;20179;-87
2023/01/18 07:13:19;;;;;;;20.20;13.23;;;0.40;93.30;;;;;;4983613;28;20198;-88
2023/01/18 07:15:56;;;;;;;18.00;12.63;;;0.20;93.90;;;;;;4989247;28;20226;-89
2023/01/18 07:18:29;;;;;;;19.73;13.63;;;0.20;94.40;;;;;;4998964;28;20226;-84
2023/01/18 07:20:59;;;;;;;20.10;13.47;;;0.20;94.90;;;;;;5004079;28;20182;-84
2023/01/18 07:23:27;;;;;;;18.50;13.57;;;0.20;95.20;;;;;;5003939;28;20182;-88
2023/01/18 07:26:04;;;;;;;18.53;13.00;;;0.30;95.80;;;;;;5002908;28;20199;-86
2023/01/18 07:28:32;;;;;;;18.63;14.37;;;0.30;95.50;;;;;;5013809;28;20174;-87
2023/01/18 07:31:03;;;;;;;24.20;14.20;;;0.40;95.30;;;;;;4999699;28;20195;-86
2023/01/18 07:33:36;;;;;;;19.70;14.47;;;0.40;95.10;;;;;;4981383;28;20199;-87
2023/01/18 07:36:08;;;;;;;20.47;14.03;;;0.40;95.10;;;;;;4990905;28;20214;-85
2023/01/18 07:38:37;;;;;;;21.67;14.63;;;0.40;95.20;;;;;;5002528;28;20167;-85
2023/01/18 07:41:09;;;;;;;18.73;14.97;;;0.50;95.60;;;;;;4997350;28;20228;-79
2023/01/18 07:43:40;;;;;;;21.87;15.47;;;0.50;95.70;;;;;;4991608;28;20206;-88
2023/01/18 07:46:12;;;;;;;21.53;15.53;;;0.60;96.00;;;;;;4971172;28;20238;-88
2023/01/18 07:48:38;;;;;;;21.87;15.90;;;0.90;95.50;;;;;;4985109;28;20207;-83
2023/01/18 07:51:07;;;;;;;19.00;14.83;;;1.00;93.20;;;;;;4976134;28;20247;-86
2023/01/18 07:53:53;;;;;;;21.20;14.63;;;1.00;91.40;;;;;;4966229;28;20263;-85
2023/01/18 07:56:19;;;;;;;21.73;14.47;;;0.80;89.40;;;;;;4964164;28;20199;-88
2023/01/18 07:58:45;;;;;;;20.57;14.70;;;0.70;90.10;;;;;;5007299;28;20222;-86
2023/01/18 08:01:13;;;;;;;17.27;13.83;;;0.70;90.90;;;;;;4997131;28;20180;-84
2023/01/18 08:03:41;;;;;;;21.30;15.30;;;0.80;91.90;;;;;;5000781;28;20167;-85
2023/01/18 08:06:07;;;;;;;23.47;14.63;;;0.80;90.80;;;;;;4994588;28;20198;-86
2023/01/18 08:08:44;;;;;;;19.40;14.70;;;0.80;90.50;;;;;;4997528;28;20179;-88
2023/01/18 08:11:19;;;;;;;22.23;14.50;;;0.90;90.50;;;;;;4992359;28;20222;-87
2023/01/18 08:13:45;;;;;;;21.87;15.63;;;1.00;88.70;;;;;;4993016;28;20199;-88
2023/01/18 08:16:14;;;;;;;20.20;14.27;;;0.90;87.70;;;;;;4976228;28;20180;-88
2023/01/18 08:18:43;;;;;;;24.83;15.93;;;0.90;89.50;;;;;;4984508;28;20188;-88
2023/01/18 08:21:11;;;;;;;22.37;16.83;;;1.00;90.00;;;;;;4978897;28;20667;-87
2023/01/18 08:23:38;;;;;;;21.47;15.47;;;1.10;90.00;;;;;;4980292;28;20172;-88
2023/01/18 08:26:05;;;;;;;20.00;14.93;;;1.00;88.50;;;;;;4982000;28;20243;-87
2023/01/18 08:28:32;;;;;;;22.90;16.33;;;1.20;88.40;;;;;;4979952;28;20231;-87
2023/01/18 08:31:11;;;;;;;22.93;14.90;;;1.20;85.00;;;;;;4964845;28;20180;-87
2023/01/18 08:33:41;;;;;;;21.47;15.77;;;1.20;82.70;;;;;;4971065;28;20190;-86
2023/01/18 08:36:15;;;;;;;23.10;15.33;;;1.20;81.70;;;;;;4983320;28;20191;-88
2023/01/18 08:38:46;;;;;;;21.27;15.20;;;1.30;80.90;;;;;;4962938;28;20584;-88
2023/01/18 08:41:12;;;;;;;23.63;15.47;;;1.20;80.70;;;;;;4963072;28;20643;-85
2023/01/18 08:43:41;;;;;;;24.40;16.30;;;1.30;80.70;;;;;;4963589;28;20679;-85
2023/01/18 08:46:09;;;;;;;22.60;16.23;;;1.20;80.10;;;;;;4978311;28;20179;-85
2023/01/18 08:48:36;;;;;;;23.03;14.80;;;1.20;83.90;;;;;;4966087;28;20190;-86
2023/01/18 08:51:02;;;;;;;21.20;15.43;;;1.20;84.00;;;;;;4976946;28;20194;-86
2023/01/18 08:53:29;;;;;;;24.60;15.50;;;1.20;87.50;;;;;;4981556;28;20550;-85
2023/01/18 08:55:55;;;;;;;23.17;15.03;;;1.20;88.50;;;;;;4977695;28;20210;-84
2023/01/18 09:01:43;;;;;;;20.93;15.13;;;1.10;89.50;;;;;;4997229;28;20195;-83
2023/01/18 09:04:21;;;;;;;25.23;16.87;;;1.10;90.20;;;;;;4978327;28;20207;-85
2023/01/18 09:07:13;;;;;;;21.33;15.23;;;1.20;91.00;;;;;;4980820;28;20159;-84
2023/01/18 09:09:40;;;;;;;21.13;15.83;;;1.20;90.80;;;;;;4961645;28;20183;-86
2023/01/18 09:12:06;;;;;;;18.40;15.70;;;1.40;91.20;;;;;;4960704;28;20179;-83
2023/01/18 09:14:32;;;;;;;24.60;15.97;;;1.30;91.60;;;;;;4965692;28;20636;-84
2023/01/18 09:16:59;;;;;;;24.33;15.83;;;1.40;91.40;;;;;;4995552;28;20207;-84
2023/01/18 09:19:25;;;;;;;22.03;15.37;;;1.40;90.40;;;;;;4974967;28;20164;-85
2023/01/18 09:21:51;;;;;;;24.30;16.03;;;1.40;90.40;;;;;;4983767;28;20189;-85
2023/01/18 09:24:18;;;;;;;20.07;15.40;;;1.40;88.50;;;;;;4996110;28;20219;-86
2023/01/18 09:26:45;;;;;;;28.10;15.50;;;1.30;87.60;;;;;;4983141;28;20187;-86
2023/01/18 09:29:11;;;;;;;20.40;14.93;;;1.30;87.40;;;;;;4994728;28;20195;-84
2023/01/18 09:31:37;;;;;;;19.87;15.07;;;1.20;88.20;;;;;;4986465;28;20199;-87
2023/01/18 09:34:06;;;;;;;22.30;14.93;;;1.30;88.60;;;;;;4982552;28;20785;-87
2023/01/18 09:36:34;;;;;;;19.63;15.10;;;1.30;90.20;;;;;;4994795;28;20250;-87
2023/01/18 09:39:05;;;;;;;20.43;14.77;;;1.30;90.10;;;;;;4997069;28;20210;-87
2023/01/18 09:41:43;;;;;;;18.33;14.87;;;1.40;90.70;;;;;;5003265;28;20183;-86
2023/01/18 09:44:22;;;;;;;19.30;14.80;;;1.50;90.10;;;;;;4973355;28;20235;-87
2023/01/18 09:46:52;;;;;;;20.60;14.10;;;1.60;88.10;;;;;;4969087;28;20218;-88
2023/01/18 09:49:24;;;;;;;21.57;15.27;;;1.70;87.80;;;;;;4988015;28;20194;-87
2023/01/18 09:52:04;;;;;;;20.33;14.30;;;1.70;85.70;;;;;;4999284;28;20179;-89
2023/01/18 09:54:46;;;;;;;17.77;13.57;;;2.40;91.10;;;;;;4989821;28;20211;-88
2023/01/18 09:57:21;;;;;;;22.77;13.97;;;3.20;91.20;;;;;;4970818;28;20274;-90
2023/01/18 10:00:03;;;;;;;15.97;13.30;;;3.60;82.90;;;;;;4973636;28;20198;-89
2023/01/18 10:02:39;;;;;;;20.13;12.70;;;4.00;68.60;;;;;;4975234;28;20178;-88
2023/01/18 10:05:20;;;;;;;17.73;12.47;;;4.30;55.40;;;;;;4983241;28;20210;-89
2023/01/18 10:08:01;;;;;;;17.23;12.27;;;4.40;43.60;;;;;;5009462;28;20170;-80
2023/01/18 10:10:35;;;;;;;16.57;12.77;;;4.70;42.30;;;;;;5003658;28;20175;-80
2023/01/18 10:13:14;;;;;;;14.17;11.73;;;5.00;37.10;;;;;;5009051;28;20183;-88
2023/01/18 10:15:41;;;;;;;15.27;11.53;;;4.50;11.70;;;;;;4986836;28;20178;-83
2023/01/18 10:18:08;;;;;;;16.47;10.93;;;4.00;12.20;;;;;;4986370;28;20175;-85
2023/01/18 10:21:00;;;;;;;14.50;11.23;;;3.80;19.10;;;;;;4985216;28;20183;-86
2023/01/18 10:23:35;;;;;;;17.93;11.43;;;3.70;22.20;;;;;;4979766;28;20183;-86
2023/01/18 10:26:10;;;;;;;16.57;10.37;;;3.70;23.70;;;;;;4975389;28;20211;-88
2023/01/18 10:28:49;;;;;;;12.90;10.20;;;3.70;22.40;;;;;;4965413;28;20182;-87
2023/01/18 10:31:37;;;;;;;15.07;10.43;;;3.80;18.80;;;;;;4964819;28;20594;-86
2023/01/18 10:34:11;;;;;;;18.30;10.03;;;3.60;25.10;;;;;;4963959;28;20175;-86
2023/01/18 10:36:42;;;;;;;15.53;9.73;;;3.50;29.10;;;;;;4980557;28;20543;-86
2023/01/18 10:39:31;;;;;;;13.73;9.63;;;3.40;32.80;;;;;;4982941;28;20185;-84
2023/01/18 10:42:02;;;;;;;16.07;9.23;;;3.50;33.80;;;;;;4983582;28;20218;-86
2023/01/18 10:44:28;;;;;;;13.80;9.73;;;3.60;32.30;;;;;;4984499;28;20206;-86
2023/01/18 10:46:56;;;;;;;13.30;9.10;;;3.90;30.10;;;;;;4983558;28;20167;-85
2023/01/18 10:49:33;;;;;;;11.27;8.93;;;3.80;28.40;;;;;;4983899;28;20186;-85
2023/01/18 10:52:28;;;;;;;14.40;8.93;;;3.80;26.70;;;;;;4987344;28;20589;-86
2023/01/18 10:55:00;;;;;;;12.40;8.13;;;4.00;27.00;;;;;;4984742;28;20202;-86
2023/01/18 10:57:30;;;;;;;11.93;8.37;;;4.10;24.70;;;;;;4983355;28;20674;-86
2023/01/18 10:59:56;;;;;;;11.63;8.23;;;4.10;20.70;;;;;;4982984;28;20191;-86
2023/01/18 11:02:29;;;;;;;12.83;8.50;;;4.00;21.50;;;;;;4982366;28;20175;-86
2023/01/18 11:05:36;;;;;;;10.17;7.33;;;4.10;21.20;;;;;;4966966;28;20221;-85
2023/01/18 11:08:31;;;;;;;12.47;7.83;;;4.10;18.20;;;;;;4990179;28;20178;-86
2023/01/18 11:11:14;;;;;;;12.60;7.90;;;4.10;20.40;;;;;;4984079;28;20167;-86
2023/01/18 11:13:48;;;;;;;10.00;7.00;;;4.00;19.90;;;;;;4985148;28;20178;-86
2023/01/18 11:16:21;;;;;;;8.73;7.27;;;4.00;20.40;;;;;;4985911;28;20179;-86
2023/01/18 11:18:58;;;;;;;10.73;7.50;;;4.10;22.30;;;;;;4985220;28;20186;-86
2023/01/18 11:21:25;;;;;;;10.00;7.03;;;4.20;17.80;;;;;;4991890;28;20189;-85
2023/01/18 11:23:52;;;;;;;10.60;7.97;;;4.20;19.00;;;;;;5012320;28;20206;-84
2023/01/18 11:26:20;;;;;;;8.63;6.53;;;4.30;16.70;;;;;;4984040;28;20174;-86
2023/01/18 11:29:04;;;;;;;10.37;7.10;;;4.20;14.30;;;;;;4983324;28;20171;-86
2023/01/18 11:31:44;;;;;;;10.47;7.20;;;4.40;13.40;;;;;;4983156;28;20206;-87
2023/01/18 11:34:25;;;;;;;13.73;7.50;;;4.50;11.80;;;;;;4983715;28;20238;-86
2023/01/18 11:36:54;;;;;;;12.80;7.90;;;4.70;8.80;;;;;;4989523;28;20190;-86
2023/01/18 11:39:31;;;;;;;10.17;6.83;;;4.60;7.20;;;;;;5000516;28;20179;-87
2023/01/18 11:42:13;;;;;;;11.20;7.70;;;4.50;7.80;;;;;;5003327;28;20174;-85
2023/01/18 11:45:10;;;;;;;12.40;8.00;;;4.60;6.60;;;;;;5003075;28;20210;-86
2023/01/18 11:48:10;;;;;;;16.33;9.90;;;4.70;6.70;;;;;;5003076;28;20163;-85
2023/01/18 11:50:51;;;;;;;15.77;11.07;;;4.60;7.40;;;;;;5001961;28;20171;-85
2023/01/18 11:53:42;;;;;;;17.73;10.53;;;4.60;8.20;;;;;;5001208;28;20314;-87
2023/01/18 11:59:35;;;;;;;15.43;9.33;;;4.70;5.60;;;;;;4998830;28;20182;-86
2023/01/18 12:02:30;;;;;;;12.97;8.63;;;5.00;3.20;;;;;;4980913;28;20514;-87
2023/01/18 12:05:15;;;;;;;10.13;7.20;;;4.90;4.20;;;;;;4980980;28;20206;-88
2023/01/18 12:08:10;;;;;;;12.73;8.17;;;5.00;1.00;;;;;;4980062;28;20178;-87
2023/01/18 12:11:02;;;;;;;10.77;7.63;;;4.90;1.00;;;;;;4978844;28;20191;-88
2023/01/18 12:13:40;;;;;;;8.90;6.00;;;4.80;2.40;;;;;;4976354;28;20226;-86
2023/01/18 12:16:18;;;;;;;19.97;12.53;;;5.10;1.00;;;;;;4983775;28;20187;-87
2023/01/18 12:19:23;;;;;;;29.87;17.40;;;5.30;1.00;;;;;;4980589;28;20184;-86
2023/01/18 12:21:58;;;;;;;13.93;8.80;;;5.30;1.00;;;;;;4987145;28;20187;-87
2023/01/18 12:24:55;;;;;;;16.33;9.23;;;5.30;1.00;;;;;;4978826;28;20225;-87
2023/01/18 12:27:58;;;;;;;9.53;5.90;;;5.30;1.00;;;;;;5010973;28;20179;-86
2023/01/18 12:30:53;;;;;;;18.00;11.57;;;5.40;1.00;;;;;;4988432;28;20179;-86
2023/01/18 12:33:31;;;;;;;12.03;7.07;;;5.20;1.00;;;;;;4987004;28;20196;-85
2023/01/18 12:36:06;;;;;;;11.73;7.20;;;5.20;1.00;;;;;;4982242;28;20171;-87
2023/01/18 12:38:34;;;;;;;13.03;8.03;;;5.50;1.00;;;;;;4979324;28;20190;-88
2023/01/18 12:41:24;;;;;;;16.40;7.90;;;5.40;1.00;;;;;;4962774;28;20222;-85
2023/01/18 12:44:10;;;;;;;8.47;5.93;;;5.40;1.00;;;;;;4961731;28;20175;-87
2023/01/18 12:46:50;;;;;;;7.77;5.17;;;5.30;1.00;;;;;;4973351;28;20178;-85
2023/01/18 12:49:20;;;;;;;8.77;5.73;;;5.30;1.00;;;;;;4970658;28;20183;-86
2023/01/18 12:51:59;;;;;;;12.70;6.70;;;5.30;1.00;;;;;;4983110;28;20190;-87
2023/01/18 12:54:30;;;;;;;8.77;5.47;;;5.40;1.00;;;;;;4988848;28;20198;-84
2023/01/18 12:56:58;;;;;;;9.43;5.57;;;5.30;1.00;;;;;;5018135;28;20206;-85
2023/01/18 12:59:29;;;;;;;10.67;5.57;;;5.30;1.00;;;;;;5010027;28;20179;-87
2023/01/18 13:02:30;;;;;;;8.43;6.20;;;5.30;1.00;;;;;;5003662;28;20187;-88
2023/01/18 13:05:34;;;;;;;9.33;6.20;;;5.40;1.00;;;;;;4982350;28;20202;-87
2023/01/18 13:08:18;;;;;;;8.20;6.17;;;5.30;1.00;;;;;;4981235;28;20634;-87
2023/01/18 13:10:45;;;;;;;9.17;6.27;;;5.30;1.00;;;;;;4999266;28;20178;-85
2023/01/18 13:13:18;;;;;;;8.77;6.00;;;5.40;1.00;;;;;;4977531;28;20213;-84
2023/01/18 13:16:09;;;;;;;11.33;6.77;;;5.70;1.00;;;;;;4968024;28;20179;-86
2023/01/18 13:18:54;;;;;;;10.93;6.17;;;5.40;1.00;;;;;;4962735;28;20182;-86
2023/01/18 13:21:24;;;;;;;9.90;7.03;;;5.50;1.00;;;;;;4959769;28;20658;-84
2023/01/18 13:24:12;;;;;;;7.67;6.23;;;5.50;1.00;;;;;;4958648;28;20710;-86
2023/01/18 13:26:39;;;;;;;9.90;6.03;;;5.40;1.00;;;;;;4959226;28;20262;-86
2023/01/18 13:29:15;;;;;;;10.53;6.07;;;5.70;1.00;;;;;;4960336;28;20172;-85
2023/01/18 13:31:42;;;;;;;9.37;5.90;;;5.80;1.00;;;;;;4962407;28;20195;-85
2023/01/18 13:34:32;;;;;;;9.37;6.07;;;6.00;1.00;;;;;;4977885;28;20207;-86
2023/01/18 13:37:00;;;;;;;8.27;5.87;;;5.90;1.00;;;;;;4967315;28;20185;-87
2023/01/18 13:39:27;;;;;;;11.10;6.97;;;5.90;1.00;;;;;;4967517;28;20198;-87
2023/01/18 13:42:25;;;;;;;8.47;6.37;;;6.00;1.00;;;;;;4964679;28;20190;-86
2023/01/18 13:45:16;;;;;;;10.00;6.23;;;5.80;1.00;;;;;;4964684;28;20199;-87
2023/01/18 13:47:56;;;;;;;11.97;6.50;;;5.90;1.00;;;;;;4973028;28;20169;-87
2023/01/18 13:50:30;;;;;;;10.67;5.97;;;5.90;1.00;;;;;;4974587;28;20183;-86